createdAt,value
2018-10-11T00:00:38.454Z,100723.40
2018-10-11T00:03:04.460Z,100720.10
2018-10-11T00:05:30.444Z,100729.34
2018-10-11T00:07:56.435Z,100728.50
2018-10-11T00:10:22.517Z,100727.34
2018-10-11T00:12:48.470Z,100722.75
2018-10-11T00:15:14.451Z,100719.06
2018-10-11T00:17:40.428Z,100721.56
2018-10-11T00:20:06.510Z,100728.17
2018-10-11T00:22:32.414Z,100726.49
2018-10-11T00:24:58.367Z,100738.05
2018-10-11T00:27:24.374Z,100731.59
2018-10-11T00:29:50.425Z,100736.41
2018-10-11T00:32:16.406Z,100736.88
2018-10-11T00:34:42.396Z,100728.95
2018-10-11T00:37:08.375Z,100728.13
2018-10-11T00:39:34.354Z,100726.66
2018-10-11T00:42:01.324Z,100722.89
2018-10-11T00:44:27.332Z,100721.42
2018-10-11T00:46:53.335Z,100717.10
2018-10-11T00:49:19.300Z,100710.99
2018-10-11T00:51:45.242Z,100704.39
2018-10-11T00:54:11.210Z,100699.60
2018-10-11T00:56:37.206Z,100697.92
2018-10-11T00:59:03.186Z,100691.67
2018-10-11T01:01:29.195Z,100689.31
2018-10-11T01:03:58.644Z,100695.45
2018-10-11T01:06:24.631Z,100691.81
2018-10-11T01:08:50.588Z,100688.34
2018-10-11T01:11:16.594Z,100681.39
2018-10-11T01:13:42.562Z,100674.78
2018-10-11T01:16:08.569Z,100676.96
2018-10-11T01:18:34.542Z,100679.60
2018-10-11T01:21:00.515Z,100678.92
2018-10-11T01:23:26.482Z,100681.56
2018-10-11T01:25:52.494Z,100674.78
2018-10-11T01:28:18.515Z,100686.67
2018-10-11T01:30:44.524Z,100692.64
2018-10-11T01:33:10.477Z,100690.99
2018-10-11T01:35:36.464Z,100690.50
2018-10-11T01:38:02.444Z,100684.89
2018-10-11T01:40:28.424Z,100681.39
2018-10-11T01:42:54.460Z,100678.75
2018-10-11T01:45:20.467Z,100676.60
2018-10-11T01:47:48.438Z,100684.03
2018-10-11T01:50:14.420Z,100687.53
2018-10-11T01:52:40.367Z,100683.89
2018-10-11T01:55:06.351Z,100677.59
2018-10-11T01:57:32.323Z,100680.24
2018-10-11T01:59:58.335Z,100671.32
2018-10-11T02:02:24.301Z,100663.56
2018-10-11T02:04:50.284Z,100667.53
2018-10-11T02:07:16.311Z,100663.56
2018-10-11T02:09:42.293Z,100656.96
2018-10-11T02:12:08.275Z,100659.93
2018-10-11T02:14:34.255Z,100664.72
2018-10-11T02:17:00.241Z,100673.82
2018-10-11T02:19:26.207Z,100677.42
2018-10-11T02:21:52.218Z,100673.14
2018-10-11T02:24:18.200Z,100666.67
2018-10-11T02:26:44.156Z,100668.84
2018-10-11T02:29:10.149Z,100665.22
2018-10-11T02:31:36.112Z,100662.57
2018-10-11T02:34:02.099Z,100661.39
2018-10-11T02:36:28.090Z,100666.67
2018-10-11T02:38:54.067Z,100661.89
2018-10-11T02:41:20.033Z,100655.14
2018-10-11T02:43:46.112Z,100646.03
2018-10-11T02:46:12.079Z,100647.22
2018-10-11T02:48:38.108Z,100636.79
2018-10-11T02:51:04.083Z,100639.11
2018-10-11T02:53:30.035Z,100644.72
2018-10-11T02:55:56.009Z,100643.39
2018-10-11T02:58:21.978Z,100639.61
2018-10-11T03:00:47.939Z,100633.36
2018-10-11T03:03:13.918Z,100629.87
2018-10-11T03:05:39.911Z,100634.33
2018-10-11T03:08:05.864Z,100632.69
2018-10-11T03:10:31.821Z,100633.66
2018-10-11T03:12:57.805Z,100631.51
2018-10-11T03:15:23.807Z,100643.58
2018-10-11T03:17:50.936Z,100645.40
2018-10-11T03:20:16.913Z,100653.33
2018-10-11T03:22:42.895Z,100654.64
2018-10-11T03:25:08.860Z,100651.67
2018-10-11T03:27:34.837Z,100654.15
2018-10-11T03:30:00.829Z,100655.14
2018-10-11T03:32:26.819Z,100661.25
2018-10-11T03:34:52.788Z,100659.93
2018-10-11T03:37:18.755Z,100653.47
2018-10-11T03:39:44.794Z,100651.32
2018-10-11T03:42:10.773Z,100649.50
2018-10-11T03:44:36.748Z,100653.33
2018-10-11T03:47:02.823Z,100654.64
2018-10-11T03:49:28.789Z,100654.32
2018-10-11T03:51:54.842Z,100650.05
2018-10-11T03:54:20.832Z,100651.19
2018-10-11T03:56:46.828Z,100653.65
2018-10-11T03:59:12.807Z,100649.69
2018-10-11T04:01:38.786Z,100643.27
2018-10-11T04:04:04.761Z,100642.44
2018-10-11T04:06:30.742Z,100646.41
2018-10-11T04:08:56.733Z,100650.19
2018-10-11T04:11:22.697Z,100636.47
2018-10-11T04:13:48.733Z,100633.51
2018-10-11T04:16:14.734Z,100639.93
2018-10-11T04:18:40.753Z,100638.94
2018-10-11T04:21:06.746Z,100640.61
2018-10-11T04:23:32.776Z,100641.44
2018-10-11T04:25:58.756Z,100650.68
2018-10-11T04:28:24.736Z,100654.00
2018-10-11T04:30:50.713Z,100643.08
2018-10-11T04:33:16.685Z,100644.76
2018-10-11T04:35:42.659Z,100644.76
2018-10-11T04:38:09.961Z,100641.62
2018-10-11T04:40:35.962Z,100636.47
2018-10-11T04:43:02.051Z,100641.62
2018-10-11T04:45:27.931Z,100632.52
2018-10-11T04:47:53.909Z,100643.58
2018-10-11T04:50:19.949Z,100641.44
2018-10-11T04:52:46.001Z,100645.40
2018-10-11T04:55:11.974Z,100647.05
2018-10-11T04:57:37.982Z,100651.01
2018-10-11T05:00:04.044Z,100654.64
2018-10-11T05:02:30.016Z,100653.65
2018-10-11T05:04:55.994Z,100651.50
2018-10-11T05:07:21.979Z,100655.14
2018-10-11T05:09:47.956Z,100661.25
2018-10-11T05:12:13.954Z,100666.86
2018-10-11T05:14:39.912Z,100664.22
2018-10-11T05:17:05.864Z,100674.78
2018-10-11T05:19:31.849Z,100683.21
2018-10-11T05:21:57.817Z,100689.67
2018-10-11T05:24:23.783Z,100685.52
2018-10-11T05:26:49.747Z,100694.77
2018-10-11T05:29:15.707Z,100700.55
2018-10-11T05:31:41.697Z,100705.34
2018-10-11T05:34:07.663Z,100707.81
2018-10-11T05:36:33.653Z,100706.98
2018-10-11T05:38:59.614Z,100707.48
2018-10-11T05:41:25.607Z,100717.37
2018-10-11T05:43:51.560Z,100716.22
2018-10-11T05:46:17.707Z,100716.05
2018-10-11T05:48:43.706Z,100718.36
2018-10-11T05:51:09.695Z,100719.05
2018-10-11T05:53:35.672Z,100721.33
2018-10-11T05:56:01.674Z,100725.66
2018-10-11T05:58:27.672Z,100724.80
2018-10-11T06:00:53.661Z,100722.16
2018-10-11T06:03:19.617Z,100718.87
2018-10-11T06:05:45.723Z,100714.59
2018-10-11T06:08:11.718Z,100716.73
2018-10-11T06:10:38.757Z,100713.27
2018-10-11T06:13:04.748Z,100716.41
2018-10-11T06:15:30.716Z,100717.73
2018-10-11T06:17:56.741Z,100722.66
2018-10-11T06:20:22.693Z,100724.16
2018-10-11T06:22:48.655Z,100736.55
2018-10-11T06:25:14.608Z,100748.58
2018-10-11T06:27:40.589Z,100747.42
2018-10-11T06:30:06.594Z,100750.08
2018-10-11T06:32:32.530Z,100748.63
2018-10-11T06:34:58.494Z,100742.02
2018-10-11T06:37:24.480Z,100741.52
2018-10-11T06:39:50.461Z,100756.41
2018-10-11T06:42:16.588Z,100758.01
2018-10-11T06:44:42.550Z,100769.90
2018-10-11T06:47:08.531Z,100771.72
2018-10-11T06:49:34.527Z,100770.58
2018-10-11T06:52:00.497Z,100767.62
2018-10-11T06:54:26.465Z,100769.27
2018-10-11T06:56:52.414Z,100772.91
2018-10-11T06:59:18.375Z,100783.47
2018-10-11T07:01:44.371Z,100785.61
2018-10-11T07:04:10.343Z,100787.77
2018-10-11T07:06:36.348Z,100789.08
2018-10-11T07:09:02.311Z,100791.72
2018-10-11T07:11:28.402Z,100791.58
2018-10-11T07:13:54.398Z,100798.52
2018-10-11T07:16:20.355Z,100807.25
2018-10-11T07:18:46.303Z,100811.54
2018-10-11T07:21:12.256Z,100813.36
2018-10-11T07:23:38.239Z,100814.81
2018-10-11T07:26:04.327Z,100813.85
2018-10-11T07:28:30.259Z,100820.10
2018-10-11T07:30:56.243Z,100815.31
2018-10-11T07:33:22.232Z,100815.67
2018-10-11T07:35:48.222Z,100814.35
2018-10-11T07:38:14.192Z,100819.47
2018-10-11T07:40:40.196Z,100814.55
2018-10-11T07:43:06.233Z,100806.25
2018-10-11T07:45:32.189Z,100810.72
2018-10-11T07:47:58.164Z,100809.20
2018-10-11T07:50:24.277Z,100810.39
2018-10-11T07:52:50.272Z,100810.85
2018-10-11T07:55:16.201Z,100822.28
2018-10-11T07:57:42.164Z,100824.23
2018-10-11T08:00:08.145Z,100825.38
2018-10-11T08:02:34.111Z,100818.31
2018-10-11T08:05:00.091Z,100815.67
2018-10-11T08:07:26.152Z,100819.63
2018-10-11T08:09:52.042Z,100821.42
2018-10-11T08:12:18.046Z,100826.38
2018-10-11T08:14:44.046Z,100823.05
2018-10-11T08:17:11.376Z,100828.03
2018-10-11T08:19:37.054Z,100824.75
2018-10-11T08:22:03.045Z,100826.43
2018-10-11T08:24:29.135Z,100824.75
2018-10-11T08:26:55.051Z,100819.97
2018-10-11T08:29:20.972Z,100816.69
2018-10-11T08:31:47.027Z,100814.05
2018-10-11T08:34:12.949Z,100818.50
2018-10-11T08:36:38.920Z,100820.29
2018-10-11T08:39:04.928Z,100815.17
2018-10-11T08:41:30.898Z,100818.97
2018-10-11T08:43:56.956Z,100816.69
2018-10-11T08:46:22.878Z,100815.36
2018-10-11T08:48:48.842Z,100817.45
2018-10-11T08:51:14.845Z,100822.93
2018-10-11T08:53:40.853Z,100825.25
2018-10-11T08:56:06.916Z,100819.27
2018-10-11T08:58:32.797Z,100817.13
2018-10-11T09:00:58.769Z,100813.49
2018-10-11T09:03:24.814Z,100819.63
2018-10-11T09:05:50.740Z,100820.29
2018-10-11T09:08:16.731Z,100814.38
2018-10-11T09:10:42.746Z,100815.06
2018-10-11T09:13:08.703Z,100827.45
2018-10-11T09:15:34.986Z,100824.47
2018-10-11T09:18:01.033Z,100822.66
2018-10-11T09:20:27.015Z,100820.02
2018-10-11T09:22:53.026Z,100819.19
2018-10-11T09:25:18.989Z,100810.91
2018-10-11T09:27:44.985Z,100812.36
2018-10-11T09:30:11.029Z,100812.59
2018-10-11T09:32:36.995Z,100811.27
2018-10-11T09:35:02.969Z,100806.94
2018-10-11T09:37:28.937Z,100811.05
2018-10-11T09:39:54.930Z,100812.09
2018-10-11T09:42:20.894Z,100815.69
2018-10-11T09:44:46.875Z,100808.62
2018-10-11T09:47:12.861Z,100808.12
2018-10-11T09:49:38.830Z,100806.80
2018-10-11T09:52:04.813Z,100804.35
2018-10-11T09:54:30.958Z,100803.03
2018-10-11T09:56:56.795Z,100801.70
2018-10-11T09:59:22.790Z,100799.70
2018-10-11T10:01:48.760Z,100798.24
2018-10-11T10:04:14.731Z,100800.22
2018-10-11T10:06:40.685Z,100803.86
2018-10-11T10:09:06.661Z,100792.59
2018-10-11T10:11:32.627Z,100796.23
2018-10-11T10:13:58.591Z,100789.27
2018-10-11T10:16:24.545Z,100784.48
2018-10-11T10:18:50.527Z,100785.50
2018-10-11T10:21:16.552Z,100786.16
2018-10-11T10:23:42.476Z,100781.70
2018-10-11T10:26:08.788Z,100792.09
2018-10-11T10:28:34.813Z,100792.09
2018-10-11T10:31:00.770Z,100792.45
2018-10-11T10:33:26.732Z,100790.31
2018-10-11T10:35:52.691Z,100786.04
2018-10-11T10:38:19.811Z,100793.80
2018-10-11T10:40:45.811Z,100791.52
2018-10-11T10:43:11.755Z,100785.59
2018-10-11T10:45:37.743Z,100779.63
2018-10-11T10:48:03.723Z,100780.45
2018-10-11T10:50:29.711Z,100778.30
2018-10-11T10:52:55.673Z,100775.66
2018-10-11T10:55:21.641Z,100777.80
2018-10-11T10:57:47.602Z,100773.34
2018-10-11T11:00:13.759Z,100771.69
2018-10-11T11:02:39.737Z,100767.56
2018-10-11T11:05:05.706Z,100764.27
2018-10-11T11:07:31.687Z,100756.80
2018-10-11T11:09:57.752Z,100751.52
2018-10-11T11:12:23.741Z,100749.73
2018-10-11T11:14:49.757Z,100749.23
2018-10-11T11:17:15.746Z,100743.59
2018-10-11T11:19:41.748Z,100748.41
2018-10-11T11:22:07.713Z,100737.66
2018-10-11T11:24:33.736Z,100735.70
2018-10-11T11:26:59.699Z,100736.06
2018-10-11T11:29:25.721Z,100727.78
2018-10-11T11:31:51.699Z,100737.02
2018-10-11T11:34:17.684Z,100740.49
2018-10-11T11:36:43.665Z,100740.03
2018-10-11T11:39:09.652Z,100742.86
2018-10-11T11:41:35.646Z,100744.64
2018-10-11T11:44:01.616Z,100733.25
2018-10-11T11:46:27.603Z,100738.53
2018-10-11T11:48:53.593Z,100728.45
2018-10-11T11:51:19.552Z,100733.06
2018-10-11T11:53:45.533Z,100723.48
2018-10-11T11:56:11.492Z,100724.64
2018-10-11T11:58:37.465Z,100724.36
2018-10-11T12:01:03.426Z,100727.64
2018-10-11T12:03:29.349Z,100728.14
2018-10-11T12:05:55.335Z,100733.74
2018-10-11T12:08:21.333Z,100734.07
2018-10-11T12:10:47.391Z,100738.39
2018-10-11T12:13:13.334Z,100739.22
2018-10-11T12:15:39.313Z,100737.75
2018-10-11T12:18:05.361Z,100739.54
2018-10-11T12:20:31.349Z,100735.58
2018-10-11T12:22:57.321Z,100733.12
2018-10-11T12:25:23.319Z,100727.51
2018-10-11T12:27:49.304Z,100726.52
2018-10-11T12:30:15.362Z,100720.90
2018-10-11T12:32:41.338Z,100724.86
2018-10-11T12:35:07.320Z,100725.19
2018-10-11T12:37:33.321Z,100728.83
2018-10-11T12:39:59.281Z,100732.80
2018-10-11T12:42:25.324Z,100738.58
2018-10-11T12:44:51.282Z,100733.79
2018-10-11T12:47:17.368Z,100734.11
2018-10-11T12:49:47.450Z,100733.62
2018-10-11T12:52:09.453Z,100732.47
2018-10-11T12:54:35.406Z,100730.02
2018-10-11T12:57:01.532Z,100735.63
2018-10-11T12:59:27.437Z,100728.19
2018-10-11T13:01:53.413Z,100720.76
2018-10-11T13:04:19.395Z,100722.77
2018-10-11T13:06:45.354Z,100707.72
2018-10-11T13:09:11.350Z,100722.59
2018-10-11T13:11:37.306Z,100718.63
2018-10-11T13:14:03.432Z,100724.09
2018-10-11T13:16:29.422Z,100722.27
2018-10-11T13:18:55.375Z,100718.80
2018-10-11T13:21:21.352Z,100719.13
2018-10-11T13:23:47.340Z,100726.87
2018-10-11T13:26:13.329Z,100720.59
2018-10-11T13:28:39.366Z,100725.19
2018-10-11T13:31:05.306Z,100728.52
2018-10-11T13:33:31.258Z,100728.19
2018-10-11T13:35:57.241Z,100720.26
2018-10-11T13:38:23.206Z,100719.27
2018-10-11T13:40:49.331Z,100724.73
2018-10-11T13:43:15.192Z,100727.38
2018-10-11T13:45:41.310Z,100726.41
2018-10-11T13:48:07.192Z,100720.77
2018-10-11T13:50:33.170Z,100716.16
2018-10-11T13:52:59.394Z,100725.09
2018-10-11T13:55:25.299Z,100727.56
2018-10-11T13:57:51.295Z,100728.55
2018-10-11T14:00:17.394Z,100723.77
2018-10-11T14:02:44.325Z,100713.84
2018-10-11T14:05:11.399Z,100719.45
2018-10-11T14:07:37.404Z,100715.66
2018-10-11T14:10:03.508Z,100716.62
2018-10-11T14:12:29.501Z,100711.69
2018-10-11T14:14:55.483Z,100712.52
2018-10-11T14:17:21.447Z,100701.94
2018-10-11T14:19:47.538Z,100701.45
2018-10-11T14:22:13.570Z,100702.27
2018-10-11T14:24:39.559Z,100705.41
2018-10-11T14:27:05.543Z,100701.80
2018-10-11T14:29:32.565Z,100704.44
2018-10-11T14:31:58.522Z,100702.95
2018-10-11T14:34:24.534Z,100706.77
2018-10-11T14:36:52.006Z,100705.45
2018-10-11T14:39:17.923Z,100699.48
2018-10-11T14:41:43.923Z,100699.34
2018-10-11T14:44:10.118Z,100703.30
2018-10-11T14:46:36.122Z,100700.16
2018-10-11T14:49:02.109Z,100699.80
2018-10-11T14:51:28.173Z,100688.58
2018-10-11T14:53:57.914Z,100685.44
2018-10-11T14:56:20.088Z,100691.37
2018-10-11T14:58:46.107Z,100687.41
2018-10-11T15:01:12.132Z,100686.41
2018-10-11T15:03:38.118Z,100683.77
2018-10-11T15:06:04.133Z,100682.62
2018-10-11T15:08:30.109Z,100693.19
2018-10-11T15:10:56.122Z,100688.58
2018-10-11T15:13:22.108Z,100685.27
2018-10-11T15:15:48.178Z,100688.27
2018-10-11T15:18:14.104Z,100689.59
2018-10-11T15:20:40.131Z,100691.41
2018-10-11T15:23:06.107Z,100684.30
2018-10-11T15:25:32.150Z,100689.23
2018-10-11T15:27:58.169Z,100686.59
2018-10-11T15:30:24.122Z,100684.30
2018-10-11T15:32:50.093Z,100682.98
2018-10-11T15:35:16.052Z,100675.55
2018-10-11T15:37:42.061Z,100678.19
2018-10-11T15:40:08.046Z,100673.37
2018-10-11T15:42:34.084Z,100676.33
2018-10-11T15:45:00.105Z,100678.33
2018-10-11T15:47:26.089Z,100675.51
2018-10-11T15:49:52.116Z,100676.33
2018-10-11T15:52:18.174Z,100684.76
2018-10-11T15:54:44.260Z,100678.48
2018-10-11T15:57:10.237Z,100680.98
2018-10-11T15:59:36.220Z,100685.13
2018-10-11T16:02:02.252Z,100685.30
2018-10-11T16:04:28.214Z,100684.98
2018-10-11T16:06:54.177Z,100686.30
2018-10-11T16:09:20.238Z,100687.95
2018-10-11T16:11:46.227Z,100689.41
2018-10-11T16:14:12.202Z,100686.62
2018-10-11T16:16:38.195Z,100694.23
2018-10-11T16:19:04.232Z,100699.98
2018-10-11T16:21:30.223Z,100702.80
2018-10-11T16:23:56.207Z,100704.27
2018-10-11T16:26:22.208Z,100707.59
2018-10-11T16:28:48.210Z,100703.77
2018-10-11T16:31:14.182Z,100703.62
2018-10-11T16:33:40.318Z,100703.30
2018-10-11T16:36:06.307Z,100704.63
2018-10-11T16:38:32.272Z,100707.73
2018-10-11T16:40:59.212Z,100713.52
2018-10-11T16:43:25.194Z,100713.20
2018-10-11T16:45:51.196Z,100714.06
2018-10-11T16:50:49.471Z,100735.53
2018-10-11T16:53:15.455Z,100725.78
2018-10-11T16:55:41.413Z,100728.92
2018-10-11T16:58:07.522Z,100726.46
2018-10-11T17:00:33.341Z,100741.14
2018-10-11T17:02:59.326Z,100740.67
2018-10-11T17:05:25.311Z,100744.28
2018-10-11T17:07:51.312Z,100745.78
2018-10-11T17:10:17.306Z,100745.78
2018-10-11T17:12:43.332Z,100753.36
2018-10-11T17:15:09.357Z,100757.82
2018-10-11T17:17:35.407Z,100768.25
2018-10-11T17:20:01.380Z,100767.89
2018-10-11T17:22:27.389Z,100770.21
2018-10-11T17:24:54.473Z,100773.17
2018-10-11T17:27:20.614Z,100770.04
2018-10-11T17:29:46.673Z,100767.07
2018-10-11T17:32:12.539Z,100768.91
2018-10-11T17:34:38.527Z,100774.86
2018-10-11T17:37:04.517Z,100770.72
2018-10-11T17:39:30.468Z,100774.36
2018-10-11T17:41:56.527Z,100771.86
2018-10-11T17:44:22.451Z,100778.16
2018-10-11T17:46:48.472Z,100776.51
2018-10-11T17:49:14.543Z,100780.29
2018-10-11T17:51:40.562Z,100784.06
2018-10-11T17:54:06.554Z,100786.71
2018-10-11T17:56:32.567Z,100787.53
2018-10-11T17:58:58.549Z,100795.28
2018-10-11T18:01:24.525Z,100796.60
2018-10-11T18:03:50.506Z,100791.67
2018-10-11T18:06:17.488Z,100797.59
2018-10-11T18:08:43.467Z,100797.59
2018-10-11T18:11:10.462Z,100796.27
2018-10-11T18:13:36.518Z,100801.25
2018-10-11T18:16:04.582Z,100808.55
2018-10-11T18:18:30.543Z,100803.07
2018-10-11T18:20:56.511Z,100807.86
2018-10-11T18:23:22.557Z,100809.51
2018-10-11T18:25:48.558Z,100806.54
2018-10-11T18:28:17.818Z,100805.71
2018-10-11T18:30:43.782Z,100806.54
2018-10-11T18:33:10.948Z,100809.81
2018-10-11T18:35:37.154Z,100811.64
2018-10-11T18:38:03.179Z,100814.78
2018-10-11T18:40:29.133Z,100817.75
2018-10-11T18:42:55.165Z,100819.24
2018-10-11T18:45:21.180Z,100825.34
2018-10-11T18:47:47.136Z,100824.31
2018-10-11T18:50:13.120Z,100829.13
2018-10-11T18:52:39.124Z,100835.88
2018-10-11T18:55:05.114Z,100837.38
2018-10-11T18:57:31.099Z,100838.84
2018-10-11T18:59:57.086Z,100835.10
2018-10-11T19:02:23.104Z,100831.13
2018-10-11T19:04:49.152Z,100826.31
2018-10-11T19:07:15.230Z,100830.64
2018-10-11T19:09:41.245Z,100829.81
2018-10-11T19:12:07.246Z,100829.81
2018-10-11T19:14:33.257Z,100825.68
2018-10-11T19:16:59.311Z,100830.00
2018-10-11T19:19:25.278Z,100839.53
2018-10-11T19:21:51.272Z,100832.09
2018-10-11T19:24:17.286Z,100844.63
2018-10-11T19:26:43.294Z,100843.48
2018-10-11T19:29:09.278Z,100845.27
2018-10-11T19:31:35.268Z,100849.09
2018-10-11T19:34:01.290Z,100842.81
2018-10-11T19:36:27.275Z,100841.66
2018-10-11T19:38:53.321Z,100841.30
2018-10-11T19:41:19.360Z,100833.09
2018-10-11T19:43:45.347Z,100837.88
2018-10-11T19:46:11.345Z,100827.99
2018-10-11T19:48:37.449Z,100833.78
2018-10-11T19:51:04.550Z,100836.06
2018-10-11T19:53:30.561Z,100840.72
2018-10-11T19:55:56.600Z,100838.57
2018-10-11T19:58:22.560Z,100834.93
2018-10-11T20:00:48.543Z,100839.25
2018-10-11T20:03:14.717Z,100836.25
2018-10-11T20:05:40.708Z,100838.89
2018-10-11T20:08:06.737Z,100843.36
2018-10-11T20:10:32.882Z,100850.46
2018-10-11T20:12:58.869Z,100849.64
2018-10-11T20:15:24.900Z,100852.75
2018-10-11T20:17:50.916Z,100853.11
2018-10-11T20:20:16.887Z,100850.60
2018-10-11T20:22:42.877Z,100860.84
2018-10-11T20:25:08.950Z,100857.57
2018-10-11T20:27:35.953Z,100852.75
2018-10-11T20:30:02.253Z,100858.89
2018-10-11T20:32:30.224Z,100848.50
2018-10-11T20:34:56.234Z,100846.19
2018-10-11T20:37:22.226Z,100850.66
2018-10-11T20:39:48.296Z,100851.80
2018-10-11T20:42:14.359Z,100850.48
2018-10-11T20:44:40.479Z,100846.52
2018-10-11T20:47:06.464Z,100845.86
2018-10-11T20:49:32.600Z,100849.33
2018-10-11T20:51:58.649Z,100846.83
2018-10-11T20:54:24.650Z,100849.47
2018-10-11T20:56:50.638Z,100853.80
2018-10-11T20:59:16.622Z,100864.01
2018-10-11T21:01:42.591Z,100869.30
2018-10-11T21:04:08.560Z,100861.03
2018-10-11T21:06:34.538Z,100864.01
2018-10-11T21:09:00.522Z,100861.03
2018-10-11T21:11:26.507Z,100864.01
2018-10-11T21:13:52.486Z,100864.69
2018-10-11T21:16:18.451Z,100861.55
2018-10-11T21:18:44.421Z,100863.06
2018-10-11T21:21:10.406Z,100863.89
2018-10-11T21:23:36.378Z,100863.42
2018-10-11T21:26:02.344Z,100864.75
2018-10-11T21:28:28.367Z,100869.17
2018-10-11T21:30:54.345Z,100865.70
2018-10-11T21:33:20.331Z,100864.39
2018-10-11T21:35:46.339Z,100859.73
2018-10-11T21:38:12.419Z,100853.48
2018-10-11T21:40:38.407Z,100853.48
2018-10-11T21:43:04.396Z,100847.84
2018-10-11T21:45:30.433Z,100852.47
2018-10-11T21:47:56.406Z,100854.62
2018-10-11T21:50:22.409Z,100858.77
2018-10-11T21:52:48.476Z,100858.77
2018-10-11T21:55:14.438Z,100856.12
2018-10-11T21:57:40.504Z,100858.58
2018-10-11T22:00:06.496Z,100852.98
2018-10-11T22:02:34.644Z,100844.73
2018-10-11T22:05:00.612Z,100843.87
2018-10-11T22:07:26.591Z,100838.59
2018-10-11T22:09:53.633Z,100841.23
2018-10-11T22:12:19.625Z,100834.30
2018-10-11T22:14:45.691Z,100835.61
2018-10-11T22:17:12.716Z,100836.94
2018-10-11T22:19:38.683Z,100837.27
2018-10-11T22:22:04.688Z,100837.77
2018-10-11T22:24:30.670Z,100846.19
2018-10-11T22:26:56.661Z,100850.80
2018-10-11T22:29:22.661Z,100855.89
2018-10-11T22:31:48.622Z,100862.69
2018-10-11T22:34:14.608Z,100859.55
2018-10-11T22:36:40.685Z,100864.83
2018-10-11T22:39:06.620Z,100871.61
2018-10-11T22:41:32.577Z,100875.91
2018-10-11T22:43:58.623Z,100888.80
2018-10-11T22:46:25.621Z,100892.13
2018-10-11T22:48:51.583Z,100898.06
2018-10-11T22:51:17.554Z,100897.73
2018-10-11T22:53:43.558Z,100904.34
2018-10-11T22:56:09.556Z,100904.48
2018-10-11T22:58:35.526Z,100904.02
2018-10-11T23:01:01.491Z,100918.06
2018-10-11T23:03:27.462Z,100916.55
2018-10-11T23:05:53.511Z,100918.50
2018-10-11T23:08:19.569Z,100924.80
2018-10-11T23:10:45.519Z,100926.07
2018-10-11T23:13:11.504Z,100921.78
2018-10-11T23:15:37.477Z,100926.93
2018-10-11T23:18:03.452Z,100924.75
2018-10-11T23:20:29.537Z,100924.12
2018-10-11T23:22:55.722Z,100924.12
2018-10-11T23:25:21.724Z,100929.41
2018-10-11T23:27:47.701Z,100936.51
2018-10-11T23:30:13.684Z,100946.13
2018-10-11T23:32:39.649Z,100948.77
2018-10-11T23:35:05.633Z,100948.27
2018-10-11T23:37:31.599Z,100952.23
2018-10-11T23:39:57.606Z,100948.41
2018-10-11T23:42:23.566Z,100955.02
2018-10-11T23:44:49.568Z,100955.20
2018-10-11T23:47:15.527Z,100948.27
2018-10-11T23:49:41.496Z,100954.88
2018-10-11T23:52:07.472Z,100946.25
2018-10-11T23:54:33.444Z,100953.00
2018-10-11T23:56:59.434Z,100950.86
2018-10-11T23:59:25.410Z,100950.86
